createdAt,value
2022-12-02T00:01:54.972Z,29.73
2022-12-02T00:04:24.382Z,26.17
2022-12-02T00:06:54.294Z,30.67
2022-12-02T00:09:34.480Z,34.07
2022-12-02T00:12:19.278Z,30.43
2022-12-02T00:14:46.718Z,34.17
2022-12-02T00:17:13.618Z,32.33
2022-12-02T00:19:40.542Z,36.93
2022-12-02T00:22:07.513Z,29.23
2022-12-02T00:24:34.413Z,34.10
2022-12-02T00:27:01.360Z,28.97
2022-12-02T00:29:28.470Z,31.17
2022-12-02T00:31:55.393Z,28.17
2022-12-02T00:34:22.411Z,29.40
2022-12-02T00:36:49.307Z,26.77
2022-12-02T00:39:16.692Z,30.87
2022-12-02T00:41:43.790Z,33.67
2022-12-02T00:44:29.531Z,30.27
2022-12-02T00:46:56.465Z,28.83
2022-12-02T00:49:23.411Z,28.73
2022-12-02T00:51:50.323Z,32.40
2022-12-02T00:54:17.263Z,27.37
2022-12-02T00:56:44.164Z,26.73
2022-12-02T00:59:11.058Z,27.10
2022-12-02T01:01:38.211Z,30.80
2022-12-02T01:04:05.786Z,28.73
2022-12-02T01:06:32.725Z,26.53
2022-12-02T01:08:59.640Z,27.20
2022-12-02T01:11:26.505Z,28.70
2022-12-02T01:13:53.492Z,26.53
2022-12-02T01:16:20.454Z,29.73
2022-12-02T01:18:47.444Z,26.27
2022-12-02T01:21:14.425Z,26.00
2022-12-02T01:23:41.334Z,32.07
2022-12-02T01:26:08.352Z,31.50
2022-12-02T01:28:35.418Z,25.80
2022-12-02T01:31:02.376Z,25.77
2022-12-02T01:33:29.423Z,23.50
2022-12-02T01:35:56.310Z,26.70
2022-12-02T01:38:23.307Z,29.73
2022-12-02T01:40:50.292Z,24.20
2022-12-02T01:43:17.357Z,28.90
2022-12-02T01:45:44.542Z,26.83
2022-12-02T01:48:11.926Z,27.50
2022-12-02T01:50:39.925Z,23.00
2022-12-02T01:53:06.920Z,25.30
2022-12-02T01:55:33.916Z,26.37
2022-12-02T01:58:01.128Z,20.47
2022-12-02T02:00:28.495Z,30.67
2022-12-02T02:02:55.821Z,23.97
2022-12-02T02:05:29.491Z,21.23
2022-12-02T02:08:03.577Z,24.40
2022-12-02T02:10:30.818Z,20.27
2022-12-02T02:12:58.428Z,28.30
2022-12-02T02:15:25.807Z,30.20
2022-12-02T02:17:54.415Z,26.57
2022-12-02T02:20:23.976Z,26.10
2022-12-02T02:23:21.513Z,25.10
2022-12-02T02:25:53.206Z,25.30
2022-12-02T02:28:23.636Z,27.77
2022-12-02T02:30:56.408Z,25.80
2022-12-02T02:33:27.366Z,29.13
2022-12-02T02:35:54.539Z,25.70
2022-12-02T02:38:26.505Z,26.80
2022-12-02T02:40:55.382Z,22.13
2022-12-02T02:43:25.724Z,25.80
2022-12-02T02:45:54.495Z,22.50
2022-12-02T02:48:23.453Z,24.07
2022-12-02T02:50:51.219Z,27.47
2022-12-02T02:53:24.418Z,23.87
2022-12-02T02:55:52.234Z,29.93
2022-12-02T02:58:23.382Z,26.80
2022-12-02T03:01:08.914Z,30.47
2022-12-02T03:03:42.874Z,23.43
2022-12-02T03:06:11.122Z,24.30
2022-12-02T03:08:43.213Z,20.93
2022-12-02T03:11:10.853Z,18.33
2022-12-02T03:13:40.815Z,23.83
2022-12-02T03:16:12.210Z,22.23
2022-12-02T03:18:41.680Z,21.83
2022-12-02T03:21:09.553Z,22.50
2022-12-02T03:23:36.963Z,26.90
2022-12-02T03:26:05.243Z,21.97
2022-12-02T03:28:33.670Z,18.93
2022-12-02T03:31:01.260Z,21.57
2022-12-02T03:33:29.323Z,20.57
2022-12-02T03:35:56.673Z,24.53
2022-12-02T03:38:23.773Z,21.50
2022-12-02T03:40:51.089Z,24.37
2022-12-02T03:43:18.134Z,23.00
2022-12-02T03:45:45.246Z,20.07
2022-12-02T03:48:13.067Z,21.77
2022-12-02T03:50:40.953Z,23.27
2022-12-02T03:53:07.932Z,25.00
2022-12-02T03:55:35.631Z,21.30
2022-12-02T03:58:07.868Z,19.23
2022-12-02T04:00:37.061Z,20.43
2022-12-02T04:03:05.044Z,23.50
2022-12-02T04:05:32.755Z,25.00
2022-12-02T04:07:59.907Z,24.20
2022-12-02T04:10:26.882Z,20.87
2022-12-02T04:12:53.818Z,21.77
2022-12-02T04:15:20.773Z,21.80
2022-12-02T04:17:47.674Z,24.03
2022-12-02T04:20:14.623Z,24.30
2022-12-02T04:22:41.563Z,23.97
2022-12-02T04:25:09.156Z,27.40
2022-12-02T04:27:36.070Z,24.77
2022-12-02T04:30:04.102Z,26.43
2022-12-02T04:32:31.079Z,25.10
2022-12-02T04:34:57.977Z,33.07
2022-12-02T04:37:24.921Z,23.07
2022-12-02T04:39:51.902Z,27.37
2022-12-02T04:42:18.899Z,23.97
2022-12-02T04:44:45.822Z,26.13
2022-12-02T04:47:12.718Z,28.43
2022-12-02T04:49:39.674Z,25.77
2022-12-02T04:52:06.575Z,22.87
2022-12-02T04:54:33.529Z,29.37
2022-12-02T04:57:00.450Z,20.87
2022-12-02T04:59:27.407Z,23.73
2022-12-02T05:01:54.404Z,28.30
2022-12-02T05:04:21.339Z,26.50
2022-12-02T05:06:48.314Z,24.43
2022-12-02T05:09:15.374Z,27.03
2022-12-02T05:11:42.303Z,27.47
2022-12-02T05:14:09.388Z,30.23
2022-12-02T05:16:36.362Z,27.03
2022-12-02T05:19:03.411Z,31.87
2022-12-02T05:21:30.336Z,30.70
2022-12-02T05:23:57.301Z,24.93
2022-12-02T05:26:24.487Z,23.97
2022-12-02T05:28:51.398Z,23.83
2022-12-02T05:31:18.345Z,26.07
2022-12-02T05:33:45.295Z,22.30
2022-12-02T05:36:12.969Z,24.13
2022-12-02T05:38:40.302Z,27.93
2022-12-02T05:41:08.062Z,29.20
2022-12-02T05:43:41.529Z,27.87
2022-12-02T05:46:18.292Z,26.87
2022-12-02T05:48:48.181Z,25.40
2022-12-02T05:51:20.927Z,21.60
2022-12-02T05:53:50.722Z,23.00
2022-12-02T05:56:27.931Z,19.73
2022-12-02T05:59:07.361Z,20.03
2022-12-02T06:01:40.025Z,23.43
2022-12-02T06:04:18.513Z,25.40
2022-12-02T06:06:45.617Z,22.87
2022-12-02T06:09:20.482Z,25.30
2022-12-02T06:11:48.428Z,24.30
2022-12-02T06:14:33.542Z,23.47
2022-12-02T06:17:15.418Z,24.67
2022-12-02T06:19:54.710Z,24.97
2022-12-02T06:22:32.767Z,24.33
2022-12-02T06:25:06.853Z,23.07
2022-12-02T06:27:34.395Z,23.97
2022-12-02T06:30:05.042Z,25.90
2022-12-02T06:32:46.152Z,24.77
2022-12-02T06:35:29.325Z,23.47
2022-12-02T06:38:22.614Z,27.20
2022-12-02T06:40:49.542Z,23.73
2022-12-02T06:43:26.911Z,26.87
2022-12-02T06:45:54.300Z,22.73
2022-12-02T06:48:33.045Z,26.07
2022-12-02T06:51:26.315Z,29.00
2022-12-02T06:53:53.489Z,28.23
2022-12-02T06:56:30.003Z,23.70
2022-12-02T06:59:01.702Z,23.07
2022-12-02T07:01:35.524Z,22.20
2022-12-02T07:04:08.950Z,28.23
2022-12-02T07:06:49.763Z,21.63
2022-12-02T07:09:26.320Z,22.57
2022-12-02T07:11:54.425Z,25.87
2022-12-02T07:14:33.280Z,23.37
2022-12-02T07:17:21.021Z,27.47
2022-12-02T07:20:09.379Z,23.03
2022-12-02T07:22:56.252Z,21.60
2022-12-02T07:25:45.858Z,24.57
2022-12-02T07:28:36.304Z,37.30
2022-12-02T07:31:27.017Z,21.67
2022-12-02T07:33:54.835Z,27.47
2022-12-02T07:36:21.792Z,22.50
2022-12-02T07:39:06.237Z,24.60
2022-12-02T07:41:36.748Z,28.93
2022-12-02T07:44:05.527Z,24.33
2022-12-02T07:46:32.696Z,26.03
2022-12-02T07:48:59.693Z,25.63
2022-12-02T07:51:26.667Z,32.33
2022-12-02T07:53:53.723Z,31.03
2022-12-02T07:56:20.643Z,27.13
2022-12-02T08:01:34.691Z,29.97
2022-12-02T08:04:01.819Z,31.20
2022-12-02T08:06:29.726Z,30.37
2022-12-02T08:08:58.769Z,33.63
2022-12-02T08:11:25.678Z,34.20
2022-12-02T08:13:52.664Z,37.53
2022-12-02T08:16:19.602Z,34.70
2022-12-02T08:18:46.536Z,30.87
2022-12-02T08:21:13.567Z,26.90
2022-12-02T08:23:40.465Z,26.63
2022-12-02T08:26:07.431Z,29.90
2022-12-02T08:28:34.425Z,26.37
2022-12-02T08:31:01.423Z,27.10
2022-12-02T08:33:28.645Z,30.87
2022-12-02T08:35:55.642Z,28.17
2022-12-02T08:38:22.651Z,24.67
2022-12-02T08:40:49.607Z,24.30
2022-12-02T08:43:16.588Z,30.63
2022-12-02T08:45:43.888Z,25.43
2022-12-02T08:48:12.063Z,32.27
2022-12-02T08:50:39.003Z,30.00
2022-12-02T08:53:06.145Z,30.07
2022-12-02T08:55:33.117Z,28.90
2022-12-02T08:58:00.119Z,31.30
2022-12-02T09:00:27.190Z,28.13
2022-12-02T09:02:54.242Z,34.47
2022-12-02T09:05:21.298Z,32.30
2022-12-02T09:07:48.341Z,32.67
2022-12-02T09:10:15.614Z,28.37
2022-12-02T09:12:42.633Z,33.03
2022-12-02T09:15:10.106Z,28.97
2022-12-02T09:17:37.074Z,30.43
2022-12-02T09:20:05.729Z,34.93
2022-12-02T09:22:32.710Z,28.40
2022-12-02T09:24:59.706Z,31.90
2022-12-02T09:27:26.690Z,29.70
2022-12-02T09:29:53.605Z,26.87
2022-12-02T09:32:20.549Z,27.93
2022-12-02T09:34:47.557Z,27.67
2022-12-02T09:37:14.859Z,26.13
2022-12-02T09:39:41.873Z,32.03
2022-12-02T09:42:11.404Z,27.50
2022-12-02T09:44:39.396Z,28.30
2022-12-02T09:47:07.245Z,34.00
2022-12-02T09:49:35.407Z,32.40
2022-12-02T09:52:06.209Z,33.70
2022-12-02T09:54:33.491Z,38.37
2022-12-02T09:57:00.478Z,32.37
2022-12-02T09:59:28.390Z,37.43
2022-12-02T10:01:57.719Z,33.33
2022-12-02T10:04:25.164Z,27.43
2022-12-02T10:06:52.906Z,33.97
2022-12-02T10:09:29.323Z,30.77
2022-12-02T10:11:56.862Z,30.83
2022-12-02T10:14:23.834Z,31.40
2022-12-02T10:16:54.102Z,35.13
2022-12-02T10:19:21.558Z,28.97
2022-12-02T10:21:51.184Z,33.53
2022-12-02T10:24:39.119Z,30.13
2022-12-02T10:27:06.045Z,34.80
2022-12-02T10:29:33.801Z,35.97
2022-12-02T10:32:18.502Z,34.77
2022-12-02T10:35:10.104Z,33.57
2022-12-02T10:37:37.940Z,37.53
2022-12-02T10:40:16.600Z,36.37
2022-12-02T10:42:45.746Z,34.23
2022-12-02T10:45:24.515Z,38.13
2022-12-02T10:48:10.486Z,37.87
2022-12-02T10:50:37.461Z,36.70
2022-12-02T10:53:17.577Z,44.90
2022-12-02T10:55:46.741Z,45.13
2022-12-02T10:58:23.147Z,38.43
2022-12-02T11:00:50.263Z,38.80
2022-12-02T11:03:17.960Z,33.30
2022-12-02T11:05:44.914Z,33.93
2022-12-02T11:08:31.399Z,34.77
2022-12-02T11:11:24.269Z,36.97
2022-12-02T11:13:55.579Z,37.03
2022-12-02T11:16:54.079Z,35.33
2022-12-02T11:19:34.779Z,38.07
2022-12-02T11:22:02.783Z,34.13
2022-12-02T11:24:32.625Z,34.07
2022-12-02T11:27:05.023Z,34.00
2022-12-02T11:29:37.892Z,36.87
2022-12-02T11:32:48.155Z,38.43
2022-12-02T11:35:18.596Z,38.37
2022-12-02T11:37:49.373Z,40.93
2022-12-02T11:40:19.354Z,39.20
2022-12-02T11:42:47.001Z,41.53
2022-12-02T11:45:36.299Z,37.57
2022-12-02T11:48:03.672Z,37.50
2022-12-02T11:50:39.794Z,41.97
2022-12-02T11:53:22.929Z,37.10
2022-12-02T11:55:54.344Z,38.03
2022-12-02T11:58:32.320Z,42.50
2022-12-02T12:01:13.716Z,48.83
2022-12-02T12:03:50.116Z,41.10
2022-12-02T12:06:25.529Z,38.43
2022-12-02T12:08:56.885Z,34.47
2022-12-02T12:11:28.038Z,44.20
2022-12-02T12:14:12.031Z,37.70
2022-12-02T12:16:42.859Z,42.30
2022-12-02T12:19:12.533Z,36.77
2022-12-02T12:21:57.246Z,46.90
2022-12-02T12:24:24.116Z,36.90
2022-12-02T12:27:04.473Z,38.93
2022-12-02T12:29:36.887Z,41.07
2022-12-02T12:32:05.581Z,45.37
2022-12-02T12:34:33.149Z,42.77
2022-12-02T12:37:00.137Z,42.63
2022-12-02T12:39:27.080Z,40.73
2022-12-02T12:42:02.033Z,36.80
2022-12-02T12:44:32.125Z,40.60
2022-12-02T12:47:03.418Z,41.67
2022-12-02T12:49:31.557Z,56.23
2022-12-02T12:51:59.225Z,43.33
2022-12-02T12:54:26.382Z,42.30
2022-12-02T12:56:53.383Z,37.80
2022-12-02T12:59:20.701Z,43.90
2022-12-02T13:01:48.237Z,41.40
2022-12-02T13:04:16.033Z,46.80
2022-12-02T13:06:43.549Z,41.03
2022-12-02T13:09:12.289Z,37.60
2022-12-02T13:11:40.077Z,40.70
2022-12-02T13:14:08.328Z,38.53
2022-12-02T13:16:35.387Z,34.90
2022-12-02T13:19:02.772Z,38.77
2022-12-02T13:21:29.838Z,50.07
2022-12-02T13:23:56.964Z,43.83
2022-12-02T13:26:23.899Z,42.30
2022-12-02T13:28:53.262Z,42.10
2022-12-02T13:31:20.985Z,39.33
2022-12-02T13:33:48.250Z,45.87
2022-12-02T13:36:15.392Z,41.83
2022-12-02T13:38:42.318Z,41.37
2022-12-02T13:41:09.355Z,38.83
2022-12-02T13:43:36.297Z,37.93
2022-12-02T13:46:03.567Z,39.67
2022-12-02T13:48:30.650Z,36.93
2022-12-02T13:50:57.654Z,40.23
2022-12-02T13:53:24.772Z,45.37
2022-12-02T13:55:52.052Z,35.77
2022-12-02T13:58:19.080Z,40.37
2022-12-02T14:00:46.195Z,38.70
2022-12-02T14:03:13.207Z,40.47
2022-12-02T14:05:40.181Z,44.33
2022-12-02T14:08:07.240Z,43.63
2022-12-02T14:10:34.281Z,34.97
2022-12-02T14:13:01.314Z,37.20
2022-12-02T14:15:28.655Z,45.77
2022-12-02T14:17:55.615Z,34.27
2022-12-02T14:20:22.533Z,42.50
2022-12-02T14:22:49.524Z,42.07
2022-12-02T14:25:16.594Z,42.53
2022-12-02T14:27:43.545Z,34.73
2022-12-02T14:30:11.304Z,38.83
2022-12-02T14:32:38.220Z,42.57
2022-12-02T14:35:07.361Z,44.70
2022-12-02T14:37:34.416Z,52.73
2022-12-02T14:40:04.355Z,45.13
2022-12-02T14:42:31.746Z,42.17
2022-12-02T14:44:58.711Z,44.03
2022-12-02T14:47:25.825Z,42.27
2022-12-02T14:49:52.942Z,42.93
2022-12-02T14:52:19.962Z,41.67
2022-12-02T14:54:47.046Z,39.63
2022-12-02T14:57:15.501Z,42.43
2022-12-02T14:59:43.475Z,36.40
2022-12-02T15:02:14.127Z,42.10
2022-12-02T15:04:41.901Z,47.20
2022-12-02T15:07:08.933Z,45.97
2022-12-02T15:09:35.861Z,37.00
2022-12-02T15:12:03.006Z,46.37
2022-12-02T15:14:29.930Z,44.07
2022-12-02T15:16:57.078Z,36.37
2022-12-02T15:19:24.104Z,41.13
2022-12-02T15:21:51.041Z,44.90
2022-12-02T15:24:17.987Z,45.27
2022-12-02T15:26:44.913Z,38.97
2022-12-02T15:29:11.925Z,38.63
2022-12-02T15:31:39.014Z,43.77
2022-12-02T15:34:06.003Z,46.87
2022-12-02T15:36:32.995Z,42.73
2022-12-02T15:38:59.919Z,40.83
2022-12-02T15:41:26.853Z,48.20
2022-12-02T15:43:54.326Z,40.73
2022-12-02T15:46:24.004Z,40.77
2022-12-02T15:48:51.611Z,45.10
2022-12-02T15:51:19.106Z,45.17
2022-12-02T15:53:46.324Z,43.47
2022-12-02T15:56:14.371Z,40.13
2022-12-02T15:58:41.418Z,39.03
2022-12-02T16:01:08.726Z,43.43
2022-12-02T16:03:35.698Z,42.10
2022-12-02T16:06:02.663Z,44.33
2022-12-02T16:08:29.732Z,45.83
2022-12-02T16:10:56.754Z,44.23
2022-12-02T16:13:23.823Z,44.03
2022-12-02T16:15:50.849Z,49.10
2022-12-02T16:18:17.981Z,37.07
2022-12-02T16:20:44.982Z,42.80
2022-12-02T16:23:11.954Z,44.10
2022-12-02T16:25:38.855Z,44.03
2022-12-02T16:28:05.798Z,38.83
2022-12-02T16:30:32.736Z,46.30
2022-12-02T16:32:59.663Z,52.20
2022-12-02T16:35:26.699Z,46.73
2022-12-02T16:37:53.646Z,48.00
2022-12-02T16:40:20.568Z,43.97
2022-12-02T16:42:47.555Z,40.97
2022-12-02T16:45:14.580Z,53.73
2022-12-02T16:47:41.547Z,48.70
2022-12-02T16:50:13.747Z,48.30
2022-12-02T16:52:40.706Z,48.30
2022-12-02T16:55:08.351Z,42.87
2022-12-02T16:57:35.395Z,47.10
2022-12-02T17:00:04.076Z,40.17
2022-12-02T17:02:32.458Z,52.27
2022-12-02T17:04:59.590Z,42.27
2022-12-02T17:07:26.740Z,49.03
2022-12-02T17:09:53.844Z,50.57
2022-12-02T17:12:21.982Z,52.47
2022-12-02T17:14:53.579Z,45.57
2022-12-02T17:17:44.167Z,37.13
2022-12-02T17:20:10.038Z,46.10
2022-12-02T17:22:37.185Z,52.27
2022-12-02T17:25:05.729Z,50.10
2022-12-02T17:27:32.750Z,42.60
2022-12-02T17:29:59.682Z,46.50
2022-12-02T17:32:26.651Z,42.57
2022-12-02T17:34:53.934Z,42.07
2022-12-02T17:37:21.246Z,37.33
2022-12-02T17:39:48.222Z,39.90
2022-12-02T17:42:15.211Z,42.37
2022-12-02T17:44:42.148Z,41.53
2022-12-02T17:47:09.598Z,43.80
2022-12-02T17:49:36.761Z,47.37
2022-12-02T17:52:19.619Z,41.40
2022-12-02T17:54:47.021Z,41.20
2022-12-02T17:57:14.186Z,45.63
2022-12-02T17:59:41.312Z,45.97
2022-12-02T18:02:10.633Z,42.80
2022-12-02T18:04:37.904Z,39.57
2022-12-02T18:07:09.421Z,45.63
2022-12-02T18:09:38.321Z,46.23
2022-12-02T18:12:07.129Z,44.27
2022-12-02T18:14:34.328Z,45.07
2022-12-02T18:17:01.863Z,46.47
2022-12-02T18:19:28.810Z,48.47
2022-12-02T18:21:55.780Z,45.57
2022-12-02T18:24:22.758Z,46.37
2022-12-02T18:26:50.361Z,36.90
2022-12-02T18:29:17.341Z,45.33
2022-12-02T18:31:44.343Z,40.53
2022-12-02T18:34:11.321Z,50.10
2022-12-02T18:36:38.253Z,43.63
2022-12-02T18:39:05.173Z,39.43
2022-12-02T18:41:32.122Z,45.23
2022-12-02T18:43:59.098Z,45.33
2022-12-02T18:46:26.136Z,48.07
2022-12-02T18:48:53.160Z,39.63
2022-12-02T18:51:20.082Z,47.00
2022-12-02T18:53:46.985Z,45.33
2022-12-02T18:56:16.787Z,44.63
2022-12-02T18:58:47.465Z,48.77
2022-12-02T19:01:14.497Z,43.73
2022-12-02T19:03:41.495Z,46.13
2022-12-02T19:06:08.426Z,42.67
2022-12-02T19:08:35.528Z,41.73
2022-12-02T19:11:02.449Z,45.43
2022-12-02T19:13:29.807Z,49.30
2022-12-02T19:15:56.810Z,48.30
2022-12-02T19:18:23.871Z,50.67
2022-12-02T19:20:50.797Z,51.83
2022-12-02T19:23:17.856Z,52.67
2022-12-02T19:25:49.400Z,52.27
2022-12-02T19:28:17.259Z,52.20
2022-12-02T19:30:44.364Z,46.10
2022-12-02T19:33:11.436Z,52.30
2022-12-02T19:35:38.495Z,43.87
2022-12-02T19:38:10.245Z,46.90
2022-12-02T19:40:44.717Z,46.77
2022-12-02T19:43:12.931Z,42.63
2022-12-02T19:45:39.981Z,41.90
2022-12-02T19:48:06.953Z,47.10
2022-12-02T19:50:34.030Z,52.77
2022-12-02T19:53:01.336Z,45.93
2022-12-02T19:55:28.474Z,44.67
2022-12-02T19:57:55.408Z,44.93
2022-12-02T20:00:22.468Z,43.77
2022-12-02T20:02:50.092Z,48.93
2022-12-02T20:05:21.581Z,43.30
2022-12-02T20:07:49.949Z,46.27
2022-12-02T20:10:17.912Z,41.93
2022-12-02T20:12:44.886Z,46.17
2022-12-02T20:15:12.952Z,48.80
2022-12-02T20:17:40.212Z,54.90
2022-12-02T20:20:09.961Z,48.43
2022-12-02T20:22:37.013Z,51.57
2022-12-02T20:25:04.543Z,51.10
2022-12-02T20:27:32.106Z,48.70
2022-12-02T20:29:59.225Z,54.27
2022-12-02T20:32:26.186Z,53.00
2022-12-02T20:34:53.420Z,47.43
2022-12-02T20:37:20.518Z,53.57
2022-12-02T20:39:47.553Z,47.70
2022-12-02T20:42:14.546Z,56.67
2022-12-02T20:44:41.555Z,54.07
2022-12-02T20:47:08.556Z,49.50
2022-12-02T20:49:35.595Z,51.73
2022-12-02T20:52:02.785Z,56.20
2022-12-02T20:54:30.008Z,44.70
2022-12-02T20:56:57.783Z,48.43
2022-12-02T20:59:24.770Z,48.63
2022-12-02T21:01:51.847Z,52.60
2022-12-02T21:04:18.834Z,53.43
2022-12-02T21:06:45.780Z,52.43
2022-12-02T21:09:12.996Z,49.80
2022-12-02T21:11:39.979Z,51.70
2022-12-02T21:14:06.914Z,48.90
2022-12-02T21:16:34.218Z,50.43
2022-12-02T21:19:01.315Z,53.20
2022-12-02T21:21:28.370Z,50.10
2022-12-02T21:23:58.760Z,50.10
2022-12-02T21:26:28.663Z,49.40
2022-12-02T21:28:55.621Z,47.50
2022-12-02T21:31:22.703Z,44.90
2022-12-02T21:33:49.754Z,45.33
2022-12-02T21:36:16.693Z,45.33
2022-12-02T21:38:43.629Z,45.03
2022-12-02T21:41:10.614Z,47.13
2022-12-02T21:43:37.579Z,45.13
2022-12-02T21:46:04.640Z,42.60
2022-12-02T21:48:31.610Z,52.13
2022-12-02T21:50:58.647Z,48.77
2022-12-02T21:53:25.695Z,46.67
2022-12-02T21:55:52.646Z,48.57
2022-12-02T21:58:19.701Z,46.20
2022-12-02T22:00:47.333Z,49.23
2022-12-02T22:03:15.258Z,42.23
2022-12-02T22:05:42.397Z,49.40
2022-12-02T22:08:09.401Z,51.60
2022-12-02T22:10:36.337Z,48.70
2022-12-02T22:13:03.288Z,53.47
2022-12-02T22:15:30.233Z,51.60
2022-12-02T22:17:57.127Z,53.57
2022-12-02T22:20:24.133Z,47.50
2022-12-02T22:22:51.060Z,50.80
2022-12-02T22:25:18.141Z,56.50
2022-12-02T22:27:45.101Z,51.17
2022-12-02T22:30:12.574Z,59.97
2022-12-02T22:32:39.517Z,47.57
2022-12-02T22:35:08.681Z,47.90
2022-12-02T22:37:35.846Z,52.70
2022-12-02T22:40:03.435Z,55.93
2022-12-02T22:42:30.399Z,57.60
2022-12-02T22:44:57.403Z,53.47
2022-12-02T22:47:24.323Z,56.33
2022-12-02T22:49:51.253Z,59.57
2022-12-02T22:52:18.295Z,59.03
2022-12-02T22:54:45.469Z,52.80
2022-12-02T22:57:12.448Z,63.60
2022-12-02T22:59:39.345Z,59.13
2022-12-02T23:02:06.304Z,59.63
2022-12-02T23:04:33.346Z,61.07
2022-12-02T23:07:00.246Z,52.07
2022-12-02T23:09:29.174Z,64.20
2022-12-02T23:11:56.108Z,59.10
2022-12-02T23:14:23.077Z,65.97
2022-12-02T23:16:50.068Z,63.43
2022-12-02T23:19:17.329Z,63.60
2022-12-02T23:21:44.342Z,68.67
2022-12-02T23:24:11.338Z,64.10
2022-12-02T23:26:38.397Z,61.20
2022-12-02T23:29:05.480Z,64.57
2022-12-02T23:31:32.517Z,68.03
2022-12-02T23:33:59.454Z,62.43
2022-12-02T23:36:29.513Z,60.80
2022-12-02T23:38:58.908Z,67.17
2022-12-02T23:41:25.858Z,61.67
2022-12-02T23:43:52.815Z,64.27
2022-12-02T23:46:19.812Z,61.03
2022-12-02T23:48:46.795Z,64.10
2022-12-02T23:51:13.682Z,53.43
2022-12-02T23:53:40.603Z,56.03
2022-12-02T23:56:07.848Z,61.17
2022-12-02T23:58:34.761Z,61.00
